Time;durP1;ratioP1;P1;durP2;ratioP2;P2;SDS_P1;SDS_P2;PMS_P1;PMS_P2;Temp;Humidity;BMP_temperature;BMP_pressure;BME280_temperature;BME280_humidity;BME280_pressure;Samples;Min_cycle;Max_cycle;Signal;HPM_P1;HPM_P2
2021/12/06 00:02:06;;;;;;;67.97;44.90;;;;;;;0.60;100.00;101014.66;5123003;27;20054;-69
2021/12/06 00:04:36;;;;;;;69.95;44.75;;;;;;;0.55;100.00;101010.06;5124387;27;20038;-69
2021/12/06 00:07:06;;;;;;;66.05;44.33;;;;;;;0.59;100.00;101015.47;5122175;28;20458;-67
2021/12/06 00:09:31;;;;;;;68.00;43.15;;;;;;;0.63;100.00;101013.94;5124885;28;20083;-69
2021/12/06 00:11:59;;;;;;;66.60;44.65;;;;;;;0.64;100.00;101011.41;5122907;28;20031;-69
2021/12/06 00:14:31;;;;;;;62.53;43.08;;;;;;;0.66;100.00;101009.75;5124249;28;20023;-68
2021/12/06 00:16:59;;;;;;;61.60;42.47;;;;;;;0.63;100.00;101014.81;5124141;28;20032;-69
2021/12/06 00:19:25;;;;;;;57.85;39.70;;;;;;;0.62;100.00;101018.22;5124144;28;20481;-69
2021/12/06 00:21:51;;;;;;;62.72;42.22;;;;;;;0.61;100.00;101023.34;5124344;28;20026;-69
2021/12/06 00:24:17;;;;;;;60.05;40.05;;;;;;;0.60;100.00;101026.78;5104378;28;20107;-69
2021/12/06 00:26:43;;;;;;;60.25;40.85;;;;;;;0.57;100.00;101026.63;5125800;28;20523;-69
2021/12/06 00:29:09;;;;;;;61.42;42.13;;;;;;;0.68;100.00;101030.63;5133612;28;20016;-68
2021/12/06 00:31:36;;;;;;;63.47;42.88;;;;;;;0.69;100.00;101035.91;5147430;28;20050;-68
2021/12/06 00:34:06;;;;;;;61.03;41.30;;;;;;;0.73;100.00;101039.56;5143431;28;20016;-68
2021/12/06 00:36:33;;;;;;;62.45;42.63;;;;;;;0.82;100.00;101036.50;5145744;28;20034;-69
2021/12/06 00:39:02;;;;;;;64.15;43.83;;;;;;;0.80;100.00;101038.13;5143816;28;20045;-69
2021/12/06 00:41:27;;;;;;;63.00;43.03;;;;;;;0.77;100.00;101048.38;5145553;28;20023;-70
2021/12/06 00:43:53;;;;;;;63.20;43.95;;;;;;;0.80;100.00;101046.84;5144108;28;20091;-68
2021/12/06 00:46:19;;;;;;;58.40;40.80;;;;;;;0.82;100.00;101053.00;5125908;28;20047;-68
2021/12/06 00:48:44;;;;;;;61.30;42.22;;;;;;;0.82;100.00;101057.31;5125562;28;20020;-68
2021/12/06 00:51:11;;;;;;;61.97;43.45;;;;;;;0.83;100.00;101064.28;5135348;27;20470;-68
2021/12/06 00:53:37;;;;;;;61.63;41.28;;;;;;;0.82;100.00;101066.00;5121786;27;20020;-67
2021/12/06 00:56:02;;;;;;;61.45;41.67;;;;;;;0.85;100.00;101067.88;5128209;27;20031;-67
2021/12/06 00:58:28;;;;;;;66.45;43.75;;;;;;;0.77;100.00;101069.22;5126038;27;20035;-68
2021/12/06 01:00:54;;;;;;;75.65;48.97;;;;;;;0.78;100.00;101086.63;5127022;27;20039;-68
2021/12/06 01:03:27;;;;;;;63.85;42.80;;;;;;;0.77;100.00;101095.25;5127230;27;20462;-68
2021/12/06 01:05:52;;;;;;;63.10;42.78;;;;;;;0.86;100.00;101090.50;5126575;27;20034;-68
2021/12/06 01:08:19;;;;;;;65.28;43.10;;;;;;;0.86;100.00;101101.78;5127547;27;20019;-69
2021/12/06 01:10:44;;;;;;;64.50;41.80;;;;;;;0.87;100.00;101097.47;5125140;27;20467;-67
2021/12/06 01:13:10;;;;;;;70.07;45.45;;;;;;;0.97;100.00;101097.09;5128300;27;20077;-67
2021/12/06 01:15:37;;;;;;;69.18;44.22;;;;;;;1.00;100.00;101093.72;5125320;27;20126;-68
2021/12/06 01:18:05;;;;;;;70.32;46.00;;;;;;;1.00;100.00;101096.34;5127969;27;20020;-67
2021/12/06 01:20:34;;;;;;;69.70;44.58;;;;;;;1.06;100.00;101094.00;5125221;27;20450;-74
2021/12/06 01:23:05;;;;;;;67.65;44.95;;;;;;;1.09;100.00;101101.09;5127643;27;20016;-74
2021/12/06 01:31:31;;;;;;;70.75;46.13;;;;;;;1.13;100.00;101105.63;5033017;28;20048;-73
2021/12/06 01:41:40;;;;;;;79.10;48.95;;;;;;;1.24;100.00;101107.03;5032957;28;20052;-75
2021/12/06 01:44:14;;;;;;;83.25;50.05;;;;;;;1.25;100.00;101114.00;5033138;28;20026;-73
2021/12/06 01:46:58;;;;;;;83.43;52.03;;;;;;;1.28;100.00;101132.41;5033211;28;20591;-74
2021/12/06 01:49:26;;;;;;;84.30;51.35;;;;;;;1.30;100.00;101124.66;5031232;28;20459;-73
2021/12/06 01:51:54;;;;;;;77.07;49.72;;;;;;;1.35;100.00;101123.13;5032742;28;20103;-73
2021/12/06 01:54:21;;;;;;;79.53;50.13;;;;;;;1.39;100.00;101130.28;5032596;28;20042;-74
2021/12/06 01:56:48;;;;;;;81.28;48.25;;;;;;;1.33;100.00;101128.28;5032812;28;20038;-73
2021/12/06 01:59:14;;;;;;;74.82;48.35;;;;;;;1.37;100.00;101132.81;5032484;28;20137;-72
2021/12/06 02:01:41;;;;;;;74.43;48.25;;;;;;;1.29;100.00;101131.56;5031666;28;20132;-72
2021/12/06 02:04:07;;;;;;;79.13;48.42;;;;;;;1.31;100.00;101135.16;5032691;28;20065;-74
2021/12/06 02:06:34;;;;;;;73.40;47.72;;;;;;;1.28;100.00;101132.41;5034530;28;20246;-74
2021/12/06 02:09:00;;;;;;;76.35;47.63;;;;;;;1.32;100.00;101123.00;5125152;27;20439;-74
2021/12/06 02:11:28;;;;;;;81.55;50.65;;;;;;;1.33;100.00;101127.41;5125282;27;20401;-75
2021/12/06 02:14:03;;;;;;;76.30;46.90;;;;;;;1.27;100.00;101125.41;5125188;27;20096;-74
2021/12/06 02:16:41;;;;;;;77.75;49.97;;;;;;;1.32;100.00;101121.28;5124606;27;20072;-75
2021/12/06 02:19:07;;;;;;;83.03;50.65;;;;;;;1.33;100.00;101130.88;5119169;27;20023;-73
2021/12/06 02:21:38;;;;;;;83.50;51.80;;;;;;;1.37;100.00;101132.81;5126631;27;20532;-73
2021/12/06 02:24:08;;;;;;;83.95;51.03;;;;;;;1.41;100.00;101138.16;5123728;27;20061;-73
2021/12/06 02:26:34;;;;;;;81.97;51.05;;;;;;;1.45;100.00;101140.09;5126335;27;20031;-75
2021/12/06 02:29:00;;;;;;;76.75;49.40;;;;;;;1.36;100.00;101141.44;5124438;27;20102;-74
2021/12/06 02:31:26;;;;;;;78.72;50.25;;;;;;;1.34;100.00;101155.22;5125309;27;20026;-76
2021/12/06 02:33:52;;;;;;;75.78;49.80;;;;;;;1.33;100.00;101154.31;5125210;27;20027;-73
2021/12/06 02:36:21;;;;;;;78.05;48.08;;;;;;;1.27;100.00;101148.84;5124447;27;20035;-73
2021/12/06 02:38:46;;;;;;;71.40;45.53;;;;;;;1.21;100.00;101156.38;5126070;27;20019;-73
2021/12/06 02:41:14;;;;;;;75.80;48.00;;;;;;;1.24;100.00;101161.72;5123002;27;20031;-74
2021/12/06 02:43:40;;;;;;;79.43;48.85;;;;;;;1.29;100.00;101160.22;5119379;27;20024;-75
2021/12/06 02:46:06;;;;;;;74.05;47.88;;;;;;;1.31;100.00;101163.78;5126337;27;20034;-72
2021/12/06 02:48:32;;;;;;;80.45;48.75;;;;;;;1.30;100.00;101171.53;5123731;27;20471;-74
2021/12/06 02:51:00;;;;;;;73.45;46.75;;;;;;;1.26;100.00;101183.50;5125151;27;20474;-76
2021/12/06 02:53:28;;;;;;;83.15;50.28;;;;;;;1.27;100.00;101174.88;5124314;27;20031;-75
2021/12/06 02:55:59;;;;;;;81.30;48.13;;;;;;;1.25;100.00;101181.72;5124430;27;20020;-74
2021/12/06 03:01:04;;;;;;;83.40;49.75;;;;;;;1.21;100.00;101180.69;5125454;27;20085;-75
2021/12/06 03:03:29;;;;;;;82.90;50.78;;;;;;;1.28;100.00;101180.97;5123510;27;20029;-75
2021/12/06 03:05:55;;;;;;;82.15;50.88;;;;;;;1.32;100.00;101185.53;5124373;27;20020;-74
2021/12/06 03:08:41;;;;;;;89.78;53.67;;;;;;;1.33;100.00;101182.09;5125156;27;20019;-74
2021/12/06 03:11:19;;;;;;;89.90;52.53;;;;;;;1.30;100.00;101182.84;5125962;27;20064;-73
2021/12/06 03:13:45;;;;;;;81.20;49.65;;;;;;;1.32;100.00;101181.19;5102923;27;20032;-70
2021/12/06 03:16:10;;;;;;;71.30;45.63;;;;;;;1.30;100.00;101182.84;5125909;27;20041;-71
2021/12/06 03:18:36;;;;;;;74.20;45.40;;;;;;;1.28;100.00;101188.78;5122592;27;20031;-72
2021/12/06 03:21:03;;;;;;;74.15;46.28;;;;;;;1.23;100.00;101179.88;5125379;27;20023;-73
2021/12/06 03:23:28;;;;;;;75.00;44.83;;;;;;;1.20;100.00;101185.84;5123362;27;20027;-71
2021/12/06 03:25:53;;;;;;;75.10;45.95;;;;;;;1.17;100.00;101183.09;5123995;27;20476;-69
2021/12/06 03:28:19;;;;;;;82.63;47.80;;;;;;;1.17;100.00;101185.69;5124660;27;20035;-72
2021/12/06 03:30:44;;;;;;;86.47;50.90;;;;;;;1.24;100.00;101182.56;5122350;27;20073;-73
2021/12/06 03:33:10;;;;;;;86.97;51.00;;;;;;;1.25;100.00;101175.63;5125797;27;20046;-72
2021/12/06 03:35:35;;;;;;;92.13;50.80;;;;;;;1.26;100.00;101183.50;5122217;27;20481;-72
2021/12/06 03:38:01;;;;;;;100.05;55.17;;;;;;;1.27;100.00;101189.59;5124449;27;20420;-71
2021/12/06 03:40:26;;;;;;;86.85;50.58;;;;;;;1.26;100.00;101183.50;5123688;27;20034;-70
2021/12/06 03:42:53;;;;;;;95.43;53.90;;;;;;;1.29;100.00;101194.06;5123511;27;20035;-70
2021/12/06 03:45:18;;;;;;;82.15;48.72;;;;;;;1.27;100.00;101193.13;5124464;27;20484;-72
2021/12/06 03:47:44;;;;;;;85.82;49.60;;;;;;;1.26;100.00;101190.44;5122427;27;20103;-71
2021/12/06 03:50:10;;;;;;;93.70;51.53;;;;;;;1.27;100.00;101197.41;5125366;27;20162;-70
2021/12/06 03:52:36;;;;;;;91.13;52.63;;;;;;;1.33;100.00;101193.41;5121927;27;20030;-70
2021/12/06 03:55:03;;;;;;;100.38;54.70;;;;;;;1.31;100.00;101194.16;5124637;27;20020;-71
2021/12/06 03:57:29;;;;;;;101.50;54.53;;;;;;;1.33;100.00;101192.53;5122856;27;20023;-70
2021/12/06 03:59:55;;;;;;;105.05;53.55;;;;;;;1.30;100.00;101198.47;5123157;27;20026;-71
2021/12/06 04:02:24;;;;;;;90.20;50.40;;;;;;;1.26;100.00;101193.94;5124312;27;20038;-70
2021/12/06 04:04:49;;;;;;;84.50;49.35;;;;;;;1.23;100.00;101190.31;5122588;27;20031;-71
2021/12/06 04:07:15;;;;;;;79.43;48.35;;;;;;;1.21;100.00;101193.72;5124975;27;20381;-70
2021/12/06 04:09:40;;;;;;;86.15;50.35;;;;;;;1.19;100.00;101190.16;5121870;28;20517;-74
2021/12/06 04:12:07;;;;;;;92.25;53.22;;;;;;;1.25;100.00;101205.16;5124685;27;20046;-71
2021/12/06 04:14:33;;;;;;;88.25;49.90;;;;;;;1.26;100.00;101206.97;5122025;28;20038;-71
2021/12/06 04:16:59;;;;;;;104.20;53.55;;;;;;;1.21;100.00;101206.75;5105251;28;20036;-71
2021/12/06 04:19:25;;;;;;;89.10;50.00;;;;;;;1.15;100.00;101202.94;5123508;28;20023;-71
2021/12/06 04:21:51;;;;;;;92.05;51.20;;;;;;;1.16;100.00;101203.00;5122745;28;20019;-72
2021/12/06 04:24:16;;;;;;;94.60;52.60;;;;;;;1.19;100.00;101197.06;5124542;27;20067;-68
2021/12/06 04:26:42;;;;;;;97.15;53.85;;;;;;;1.16;100.00;101195.19;5125793;27;20020;-69
2021/12/06 04:29:09;;;;;;;91.20;51.92;;;;;;;1.15;100.00;101202.94;5129231;27;20019;-69
2021/12/06 04:31:38;;;;;;;98.75;54.20;;;;;;;1.08;100.00;101206.06;5125914;27;20482;-69
2021/12/06 04:34:04;;;;;;;93.88;52.20;;;;;;;1.00;100.00;101197.88;5128347;27;20122;-68
2021/12/06 04:36:29;;;;;;;81.50;48.15;;;;;;;0.92;100.00;101199.22;5126908;27;20100;-69
2021/12/06 04:38:55;;;;;;;91.72;50.75;;;;;;;0.83;100.00;101207.47;5127052;27;20020;-68
2021/12/06 04:41:21;;;;;;;99.28;52.17;;;;;;;0.80;100.00;101209.91;5127874;27;20466;-69
2021/12/06 04:43:47;;;;;;;105.65;54.95;;;;;;;0.76;100.00;101213.16;5126171;27;20019;-68
2021/12/06 04:46:12;;;;;;;106.72;56.92;;;;;;;0.78;100.00;101207.22;5128647;27;20015;-68
2021/12/06 04:48:38;;;;;;;109.28;56.58;;;;;;;0.68;100.00;101208.50;5125620;27;20027;-68
2021/12/06 04:51:04;;;;;;;98.25;54.42;;;;;;;0.58;100.00;101207.94;5128138;27;20516;-68
2021/12/06 04:53:36;;;;;;;103.20;54.50;;;;;;;0.45;100.00;101222.94;5126552;27;20027;-68
2021/12/06 04:56:19;;;;;;;105.20;53.35;;;;;;;0.28;100.00;101229.88;5127947;27;20024;-68
2021/12/06 04:58:50;;;;;;;201.23;61.63;;;;;;;0.21;100.00;101222.56;5121955;27;20106;-68
2021/12/06 05:01:21;;;;;;;662.65;82.25;;;;;;;0.18;100.00;101227.59;5128307;27;20034;-69
2021/12/06 05:03:47;;;;;;;1029.63;95.90;;;;;;;0.13;100.00;101223.84;5125397;27;20024;-68
2021/12/06 05:06:19;;;;;;;940.75;87.70;;;;;;;0.02;100.00;101220.69;5128566;27;20027;-68
2021/12/06 05:08:51;;;;;;;588.72;65.65;;;;;;;-0.06;100.00;101229.78;5121839;27;20118;-68
2021/12/06 05:11:20;;;;;;;184.02;57.55;;;;;;;-0.01;100.00;101223.13;5128007;27;20031;-68
2021/12/06 05:13:47;;;;;;;138.40;62.30;;;;;;;-0.02;100.00;101235.22;5124981;27;20044;-70
2021/12/06 05:16:14;;;;;;;135.77;60.42;;;;;;;-0.19;100.00;101236.03;5128265;27;20026;-71
2021/12/06 05:18:40;;;;;;;193.00;59.97;;;;;;;-0.28;100.00;101236.41;5120959;27;20115;-68
2021/12/06 05:21:05;;;;;;;126.22;61.65;;;;;;;-0.24;100.00;101240.09;5128209;27;20026;-70
2021/12/06 05:23:31;;;;;;;122.13;55.85;;;;;;;-0.31;100.00;101236.25;5125502;27;20026;-70
2021/12/06 05:25:57;;;;;;;270.05;65.07;;;;;;;-0.44;100.00;101245.06;5126571;27;20023;-71
2021/12/06 05:28:26;;;;;;;379.80;68.18;;;;;;;-0.48;100.00;101253.53;5126732;27;20430;-68
2021/12/06 05:30:55;;;;;;;237.77;56.45;;;;;;;-0.48;100.00;101250.94;5125489;27;20527;-68
2021/12/06 05:33:29;;;;;;;258.70;56.88;;;;;;;-0.43;100.00;101246.88;5127405;27;20023;-69
2021/12/06 05:36:00;;;;;;;155.55;59.78;;;;;;;-0.49;100.00;101246.53;5125278;27;20500;-71
2021/12/06 05:38:27;;;;;;;123.60;59.55;;;;;;;-0.50;100.00;101246.47;5125677;27;20027;-69
2021/12/06 05:40:54;;;;;;;267.48;60.25;;;;;;;-0.54;100.00;101247.97;5125336;27;20051;-69
2021/12/06 05:43:19;;;;;;;483.67;69.80;;;;;;;-0.57;100.00;101245.22;5127252;27;20019;-70
2021/12/06 05:45:44;;;;;;;387.00;67.88;;;;;;;-0.54;100.00;101243.69;5124230;27;20016;-71
2021/12/06 05:48:10;;;;;;;330.25;62.85;;;;;;;-0.57;100.00;101245.22;5127475;27;20053;-70
2021/12/06 05:50:35;;;;;;;436.83;74.90;;;;;;;-0.68;100.00;101239.44;5124988;27;20035;-71
2021/12/06 05:53:01;;;;;;;392.40;74.40;;;;;;;-0.65;100.00;101242.19;5126555;27;20042;-67
2021/12/06 05:55:27;;;;;;;583.47;85.88;;;;;;;-0.76;100.00;101251.06;5125617;27;20485;-68
2021/12/06 05:57:54;;;;;;;596.08;82.82;;;;;;;-0.58;100.00;101246.03;5125474;27;20107;-71
2021/12/06 06:00:21;;;;;;;606.38;93.53;;;;;;;-0.39;100.00;101248.84;5107975;27;20039;-68
2021/12/06 06:02:47;;;;;;;607.03;97.05;;;;;;;-0.32;100.00;101254.34;5124175;27;20035;-71
2021/12/06 06:05:14;;;;;;;587.90;98.70;;;;;;;-0.30;100.00;101252.75;5127778;27;20031;-70
2021/12/06 06:07:39;;;;;;;591.50;98.70;;;;;;;-0.28;100.00;101256.31;5119794;27;20019;-69
2021/12/06 06:10:06;;;;;;;625.63;104.22;;;;;;;-0.23;100.00;101255.78;5126415;27;20084;-68
2021/12/06 06:12:31;;;;;;;454.58;90.68;;;;;;;-0.16;100.00;101266.50;5125070;27;20019;-69
2021/12/06 06:14:57;;;;;;;701.15;108.13;;;;;;;-0.11;100.00;101280.66;5125342;27;20024;-68
2021/12/06 06:17:22;;;;;;;449.90;89.45;;;;;;;-0.08;100.00;101276.50;5126007;27;20023;-68
2021/12/06 06:19:58;;;;;;;429.65;89.90;;;;;;;0.01;100.00;101277.81;5124242;27;20051;-69
2021/12/06 06:22:23;;;;;;;406.23;87.40;;;;;;;0.06;100.00;101278.94;5117880;27;20024;-69
2021/12/06 06:24:49;;;;;;;445.00;93.70;;;;;;;0.12;100.00;101287.97;5118651;27;20039;-69
2021/12/06 06:27:14;;;;;;;448.15;92.95;;;;;;;0.14;100.00;101293.25;5113795;27;20032;-70
2021/12/06 06:29:40;;;;;;;445.50;91.47;;;;;;;0.14;100.00;101286.34;5117305;27;20066;-69
2021/12/06 06:32:06;;;;;;;618.13;105.20;;;;;;;0.15;100.00;101287.25;5117808;27;20059;-70
2021/12/06 06:34:32;;;;;;;426.67;87.90;;;;;;;0.19;100.00;101291.81;5116606;27;20111;-68
2021/12/06 06:36:58;;;;;;;429.98;91.30;;;;;;;0.22;100.00;101286.78;5117780;27;20031;-69
2021/12/06 06:39:23;;;;;;;376.20;85.20;;;;;;;0.25;100.00;101286.94;5116716;27;20019;-69
2021/12/06 06:41:51;;;;;;;474.98;93.97;;;;;;;0.28;100.00;101287.09;5118111;27;20071;-70
2021/12/06 06:44:17;;;;;;;378.15;89.65;;;;;;;0.28;100.00;101288.81;5113833;27;20030;-69
2021/12/06 06:46:44;;;;;;;417.48;94.80;;;;;;;0.28;100.00;101288.81;5115698;27;20378;-70
2021/12/06 06:49:10;;;;;;;436.13;91.63;;;;;;;0.32;100.00;101289.03;5116842;27;20098;-70
2021/12/06 06:51:36;;;;;;;521.30;97.53;;;;;;;0.31;100.00;101291.56;5117483;27;20497;-69
2021/12/06 06:54:02;;;;;;;369.77;87.60;;;;;;;0.35;100.00;101285.72;5115346;27;20038;-72
2021/12/06 06:56:27;;;;;;;402.92;92.80;;;;;;;0.38;100.00;101288.47;5110692;27;20031;-68
2021/12/06 06:58:52;;;;;;;532.47;99.07;;;;;;;0.37;100.00;101289.28;5109982;28;20023;-69
2021/12/06 07:01:19;;;;;;;526.17;101.95;;;;;;;0.37;100.00;101291.88;5110262;28;20083;-70
2021/12/06 07:03:44;;;;;;;562.58;106.82;;;;;;;0.38;100.00;101295.38;5115657;27;20031;-69
2021/12/06 07:06:10;;;;;;;594.40;108.68;;;;;;;0.40;100.00;101291.16;5113920;27;20016;-68
2021/12/06 07:08:35;;;;;;;588.30;101.60;;;;;;;0.42;100.00;101298.22;5110540;28;20023;-69
2021/12/06 07:11:01;;;;;;;505.77;106.97;;;;;;;0.39;100.00;101290.25;5114620;27;20369;-68
2021/12/06 07:13:28;;;;;;;481.38;101.88;;;;;;;0.40;100.00;101296.38;5113437;27;20039;-69
2021/12/06 07:15:54;;;;;;;510.65;108.10;;;;;;;0.41;100.00;101301.66;5113081;27;20034;-68
2021/12/06 07:18:20;;;;;;;542.63;110.85;;;;;;;0.43;100.00;101306.94;5114328;27;20095;-69
2021/12/06 07:20:45;;;;;;;391.45;99.60;;;;;;;0.44;100.00;101303.53;5116844;27;20172;-68
2021/12/06 07:23:11;;;;;;;364.65;97.78;;;;;;;0.46;100.00;101313.16;5112382;27;20111;-69
2021/12/06 07:25:37;;;;;;;384.17;99.57;;;;;;;0.51;100.00;101314.31;5113881;27;20055;-68
2021/12/06 07:28:05;;;;;;;441.15;106.95;;;;;;;0.53;100.00;101319.59;5113187;27;20084;-68
2021/12/06 07:30:31;;;;;;;449.67;105.70;;;;;;;0.58;100.00;101317.22;5117923;27;20028;-68
2021/12/06 07:32:57;;;;;;;404.30;104.60;;;;;;;0.59;100.00;101319.91;5115713;27;20381;-69
2021/12/06 07:35:23;;;;;;;376.73;100.55;;;;;;;0.61;100.00;101326.13;5114342;27;20046;-70
2021/12/06 07:37:49;;;;;;;421.52;106.47;;;;;;;0.63;100.00;101324.47;5115482;27;20478;-68
2021/12/06 07:40:16;;;;;;;515.05;115.20;;;;;;;0.64;100.00;101334.06;5111832;27;20080;-69
2021/12/06 07:42:41;;;;;;;461.00;112.75;;;;;;;0.69;100.00;101329.09;5111189;27;20112;-70
2021/12/06 07:45:09;;;;;;;362.15;107.68;;;;;;;0.76;100.00;101330.31;5116319;27;20624;-68
2021/12/06 07:47:37;;;;;;;300.55;100.32;;;;;;;0.82;100.00;101322.84;5115708;27;20035;-69
2021/12/06 07:50:04;;;;;;;480.92;112.78;;;;;;;0.83;100.00;101316.78;5115397;27;20095;-68
2021/12/06 07:52:30;;;;;;;272.52;103.07;;;;;;;0.90;100.00;101312.81;5114115;27;20091;-67
2021/12/06 07:54:58;;;;;;;313.48;104.88;;;;;;;0.93;100.00;101306.03;5095504;27;20015;-69
2021/12/06 07:57:25;;;;;;;350.38;108.90;;;;;;;0.98;100.00;101303.69;5112705;27;20027;-68
2021/12/06 07:59:50;;;;;;;329.92;105.10;;;;;;;0.99;100.00;101300.25;5110549;27;20027;-69
2021/12/06 08:02:16;;;;;;;351.60;100.47;;;;;;;1.00;100.00;101305.53;5115105;27;20469;-69
2021/12/06 08:04:41;;;;;;;318.85;102.60;;;;;;;1.03;100.00;101291.78;5112316;28;20055;-70
2021/12/06 08:07:07;;;;;;;380.73;107.43;;;;;;;1.04;100.00;101289.25;5113541;28;20050;-69
2021/12/06 08:09:32;;;;;;;343.52;105.03;;;;;;;1.08;100.00;101295.50;5116645;27;20114;-68
2021/12/06 08:11:59;;;;;;;427.08;108.43;;;;;;;1.08;100.00;101286.78;5113826;28;20072;-70
2021/12/06 08:14:24;;;;;;;409.83;112.85;;;;;;;1.07;100.00;101296.31;5112800;28;20032;-68
2021/12/06 08:16:50;;;;;;;369.38;107.90;;;;;;;1.11;100.00;101289.56;5110932;28;20445;-68
2021/12/06 08:19:15;;;;;;;405.65;108.72;;;;;;;1.10;100.00;101292.97;5111517;28;20123;-68
2021/12/06 08:21:40;;;;;;;406.67;109.53;;;;;;;1.10;100.00;101291.25;5114497;28;20024;-68
2021/12/06 08:24:07;;;;;;;380.85;104.72;;;;;;;1.11;100.00;101293.06;5112027;28;20470;-68
2021/12/06 08:26:39;;;;;;;425.17;105.93;;;;;;;1.09;100.00;101302.50;5112909;28;20031;-69
2021/12/06 08:29:06;;;;;;;468.73;103.53;;;;;;;1.03;100.00;101297.91;5116879;28;20077;-68
2021/12/06 08:31:36;;;;;;;398.85;105.50;;;;;;;1.01;100.00;101294.28;5113421;28;20071;-69
2021/12/06 08:34:02;;;;;;;404.70;105.22;;;;;;;1.02;100.00;101305.59;5112896;28;20118;-68
2021/12/06 08:36:28;;;;;;;348.75;104.55;;;;;;;1.03;100.00;101302.19;5110340;28;20106;-67
2021/12/06 08:38:54;;;;;;;349.73;105.32;;;;;;;1.07;100.00;101313.66;5114475;28;20030;-68
2021/12/06 08:41:25;;;;;;;382.13;104.57;;;;;;;1.07;100.00;101316.28;5109487;28;20411;-69
2021/12/06 08:43:53;;;;;;;372.52;104.88;;;;;;;1.09;100.00;101330.25;5111256;28;20118;-70
2021/12/06 08:46:25;;;;;;;358.38;103.60;;;;;;;1.09;100.00;101327.66;5117392;28;20027;-70
2021/12/06 08:48:52;;;;;;;333.10;104.25;;;;;;;1.10;100.00;101334.66;5113896;28;20036;-69
2021/12/06 08:51:24;;;;;;;329.10;104.10;;;;;;;1.14;100.00;101336.59;5112702;28;20088;-69
2021/12/06 08:53:51;;;;;;;315.75;100.47;;;;;;;1.17;100.00;101331.53;5114206;28;20031;-70
2021/12/06 08:56:18;;;;;;;328.13;102.07;;;;;;;1.16;100.00;101337.56;5112098;28;20382;-69
2021/12/06 08:58:44;;;;;;;313.08;98.45;;;;;;;1.19;100.00;101336.03;5114312;28;20050;-69
2021/12/06 09:01:11;;;;;;;307.52;97.00;;;;;;;1.16;100.00;101335.84;5114249;28;20473;-69
2021/12/06 09:03:36;;;;;;;291.77;90.38;;;;;;;1.17;100.00;101339.34;5113560;28;20020;-69
2021/12/06 09:06:06;;;;;;;299.20;94.28;;;;;;;1.16;100.00;101345.38;5112681;28;20074;-68
2021/12/06 09:08:32;;;;;;;324.98;96.88;;;;;;;1.17;100.00;101347.16;5111376;28;20024;-68
2021/12/06 09:10:58;;;;;;;330.05;94.18;;;;;;;1.19;100.00;101345.53;5118622;27;20034;-70
2021/12/06 09:13:28;;;;;;;317.50;93.93;;;;;;;1.19;100.00;101340.31;5127682;27;20027;-69
2021/12/06 09:15:56;;;;;;;334.77;92.88;;;;;;;1.19;100.00;101340.31;5124714;27;20020;-68
2021/12/06 09:18:23;;;;;;;329.73;95.70;;;;;;;1.23;100.00;101344.88;5128220;27;20135;-69
2021/12/06 09:20:51;;;;;;;298.27;93.20;;;;;;;1.26;100.00;101349.34;5124527;27;20098;-69
2021/12/06 09:23:17;;;;;;;299.20;96.07;;;;;;;1.32;100.00;101342.72;5127901;27;20039;-69
2021/12/06 09:25:44;;;;;;;300.42;91.95;;;;;;;1.34;100.00;101342.78;5125212;27;20169;-69
2021/12/06 09:28:10;;;;;;;308.60;93.15;;;;;;;1.33;100.00;101338.41;5127023;27;20123;-68
2021/12/06 09:30:36;;;;;;;339.80;94.05;;;;;;;1.35;100.00;101350.66;5126406;27;20477;-70
2021/12/06 09:33:05;;;;;;;316.58;92.55;;;;;;;1.34;100.00;101351.50;5125545;27;20034;-69
2021/12/06 09:35:32;;;;;;;264.88;83.30;;;;;;;1.29;100.00;101342.56;5126621;27;20541;-70
2021/12/06 09:37:59;;;;;;;249.38;77.15;;;;;;;1.27;100.00;101344.22;5124973;27;20051;-69
2021/12/06 09:40:27;;;;;;;249.73;78.72;;;;;;;1.29;100.00;101342.56;5127524;27;20533;-69
2021/12/06 09:42:53;;;;;;;229.73;74.95;;;;;;;1.29;100.00;101352.09;5124531;27;20467;-71
2021/12/06 09:45:22;;;;;;;228.48;74.53;;;;;;;1.27;100.00;101348.50;5127904;27;20026;-69
2021/12/06 09:47:51;;;;;;;217.48;73.45;;;;;;;1.29;100.00;101344.28;5120199;27;20028;-68
2021/12/06 09:50:27;;;;;;;219.55;71.18;;;;;;;1.30;100.00;101341.75;5127537;27;20094;-69
2021/12/06 09:52:55;;;;;;;230.63;69.80;;;;;;;1.30;100.00;101346.97;5120691;27;20110;-69
2021/12/06 09:55:21;;;;;;;209.65;63.83;;;;;;;1.31;100.00;101351.38;5127604;27;20111;-69
2021/12/06 09:57:47;;;;;;;235.32;67.47;;;;;;;1.32;100.00;101353.13;5124451;27;20024;-69
2021/12/06 10:00:16;;;;;;;225.93;61.72;;;;;;;1.29;100.00;101354.69;5126794;27;20031;-69
2021/12/06 10:02:42;;;;;;;289.17;69.68;;;;;;;1.34;100.00;101355.81;5124923;27;20023;-69
2021/12/06 10:05:08;;;;;;;332.65;69.28;;;;;;;1.32;100.00;101344.44;5125925;27;20023;-68
2021/12/06 10:07:33;;;;;;;309.45;66.20;;;;;;;1.35;100.00;101348.06;5130093;27;20477;-70
2021/12/06 10:10:00;;;;;;;300.58;67.60;;;;;;;1.37;100.00;101340.34;5126841;27;20016;-71
2021/12/06 10:12:27;;;;;;;338.45;68.22;;;;;;;1.43;100.00;101338.03;5114666;27;20419;-78
2021/12/06 10:14:54;;;;;;;344.60;69.80;;;;;;;1.41;100.00;101324.03;5119964;27;20521;-79
2021/12/06 10:17:20;;;;;;;372.83;70.85;;;;;;;1.45;100.00;101322.50;5122600;27;20023;-75
2021/12/06 10:19:48;;;;;;;332.73;65.40;;;;;;;1.38;100.00;101316.97;5122583;27;20063;-71
2021/12/06 10:22:15;;;;;;;327.73;65.40;;;;;;;1.44;100.00;101312.88;5117995;27;20518;-69
2021/12/06 10:24:41;;;;;;;272.20;60.05;;;;;;;1.42;100.00;101306.72;5112047;27;20052;-69
2021/12/06 10:27:12;;;;;;;202.23;51.92;;;;;;;1.38;100.00;101309.16;5120856;27;20471;-69
2021/12/06 10:29:44;;;;;;;184.23;50.40;;;;;;;1.37;100.00;101306.50;5122304;27;20527;-69
2021/12/06 10:32:17;;;;;;;153.45;47.90;;;;;;;1.38;100.00;101313.47;5112900;27;20024;-69
2021/12/06 10:34:49;;;;;;;155.07;47.63;;;;;;;1.42;100.00;101306.72;5116007;27;20040;-70
2021/12/06 10:37:45;;;;;;;148.63;46.75;;;;;;;1.42;100.00;101306.72;5132756;27;20091;-68
2021/12/06 10:40:15;;;;;;;134.23;43.50;;;;;;;1.37;100.00;101315.19;5135557;27;20032;-68
2021/12/06 10:42:43;;;;;;;138.02;46.72;;;;;;;1.35;100.00;101314.19;5117329;27;20386;-71
2021/12/06 10:45:21;;;;;;;108.68;41.92;;;;;;;1.34;100.00;101309.81;5114953;27;20088;-71
2021/12/06 10:48:18;;;;;;;100.85;40.63;;;;;;;1.39;100.00;101297.91;5117079;27;20051;-70
2021/12/06 10:51:06;;;;;;;89.70;38.28;;;;;;;1.38;100.00;101293.53;5103987;27;20441;-71
2021/12/06 10:53:44;;;;;;;102.45;42.22;;;;;;;1.34;100.00;101286.38;5111866;27;20077;-73
2021/12/06 10:56:17;;;;;;;100.25;43.30;;;;;;;1.35;100.00;101267.31;5090733;28;20018;-70
2021/12/06 10:58:43;;;;;;;97.72;41.75;;;;;;;1.40;100.00;101257.13;5112330;27;20027;-72
2021/12/06 11:01:12;;;;;;;97.00;44.35;;;;;;;1.44;100.00;101242.53;5115282;27;20031;-71
2021/12/06 11:03:47;;;;;;;83.80;38.55;;;;;;;1.44;100.00;101242.53;5120209;27;20465;-72
2021/12/06 11:06:19;;;;;;;80.68;37.60;;;;;;;1.46;100.00;101252.22;5123756;27;20035;-72
2021/12/06 11:08:47;;;;;;;80.90;38.23;;;;;;;1.41;100.00;101252.81;5124380;27;20033;-72
2021/12/06 11:11:27;;;;;;;88.55;40.40;;;;;;;1.42;100.00;101252.88;5123930;27;20625;-73
2021/12/06 11:13:57;;;;;;;70.10;35.42;;;;;;;1.43;100.00;101251.16;5122717;27;20505;-72
2021/12/06 11:16:26;;;;;;;66.00;33.55;;;;;;;1.35;100.00;101253.41;5125209;27;20027;-73
2021/12/06 11:19:04;;;;;;;61.30;31.60;;;;;;;1.32;100.00;101248.03;5122779;27;20107;-68
2021/12/06 11:21:34;;;;;;;55.95;29.58;;;;;;;1.29;100.00;101237.47;5118728;27;20051;-72